Flight Track Log - Related Links

Times and Time Zones

All times are in EDT time to prevent confusion due to time zone crossing. See the CSN3889 flight status page for this flight to view local times or setup timezone preferences in your user account.

Time Position Orientation Groundspeed Altitude Reporting Facility
EDT Latitude Longitude Course Direction KTS MPH feet Rate Location/Type
Sat 07:18:00 AM 30.8623 114.0990 310° West  Level Estimated
Sat 07:19:00 AM 30.9408 113.9897 310° West  Level Estimated
Sat 07:20:00 AM 31.0192 113.8802 310° West  Level Estimated
Sat 07:21:00 AM 31.0975 113.7705 310° West  Level Estimated
Sat 07:22:00 AM 31.1757 113.6607 310° West  Level Estimated
Sat 07:23:00 AM 31.2538 113.5507 310° West  Level Estimated
Sat 07:24:00 AM 31.3318 113.4405 310° West  Level Estimated
Sat 07:25:00 AM 31.4097 113.3301 310° West  Level Estimated
Sat 07:26:00 AM 31.4875 113.2195 310° West  Level Estimated
Sat 07:27:00 AM 31.5652 113.1087 309° West  Level Estimated
Sat 07:28:00 AM 31.6429 112.9978 309° West  Level Estimated
Sat 07:29:00 AM 31.7204 112.8867 309° West  Level Estimated
Sat 07:30:00 AM 31.7978 112.7754 309° West  Level Estimated
Sat 07:31:00 AM 31.8752 112.6638 309° West  Level Estimated
Sat 07:32:00 AM 31.9524 112.5522 309° West  Level Estimated
Sat 07:33:00 AM 32.0295 112.4403 309° West  Level Estimated
Sat 07:34:00 AM 32.1066 112.3282 309° West  Level Estimated
Sat 07:35:00 AM 32.1835 112.2160 309° West  Level Estimated
Sat 07:36:00 AM 32.2604 112.1035 309° West  Level Estimated
Sat 07:37:00 AM 32.3371 111.9909 309° West  Level Estimated
Sat 07:38:00 AM 32.4138 111.8781 309° West  Level Estimated
Sat 07:39:00 AM 32.4903 111.7651 309° West  Level Estimated
Sat 07:40:00 AM 32.5668 111.6518 309° West  Level Estimated
Sat 07:41:00 AM 32.6431 111.5384 309° West  Level Estimated
Sat 07:42:00 AM 32.7194 111.4248 309° West  Level Estimated
Sat 07:43:00 AM 32.7955 111.3111 309° West  Level Estimated
Sat 07:44:00 AM 32.8715 111.1971 308° West  Level Estimated
Sat 07:45:00 AM 32.9475 111.0829 308° West  Level Estimated
Sat 07:46:00 AM 33.0233 110.9685 308° West  Level Estimated
Sat 07:47:00 AM 33.0990 110.8539 308° West  Level Estimated
Sat 07:48:00 AM 33.1746 110.7392 308° West  Level Estimated
Sat 07:49:00 AM 33.2501 110.6242 308° West  Level Estimated
Sat 07:50:00 AM 33.3256 110.5090 308° West  Level Estimated
Sat 07:51:00 AM 33.4009 110.3937 308° West  Level Estimated
Sat 07:52:00 AM 33.4761 110.2781 308° West  Level Estimated
Sat 07:53:00 AM 33.5511 110.1623 308° West  Level Estimated
Sat 07:54:00 AM 33.6261 110.0463 308° West  Level Estimated
Sat 07:55:00 AM 33.7010 109.9302 308° West  Level Estimated
Sat 07:56:00 AM 33.7757 109.8138 308° West  Level Estimated
Sat 07:57:00 AM 33.8504 109.6972 308° West  Level Estimated
Sat 07:58:00 AM 33.9249 109.5805 308° West  Level Estimated
Sat 07:59:00 AM 33.9994 109.4635 308° West  Level Estimated
Sat 08:00:00 AM 34.0737 109.3463 307° West  Level Estimated
Sat 08:01:00 AM 34.1479 109.2289 307° West  Level Estimated
Sat 08:02:00 AM 34.2220 109.1113 307° West  Level Estimated
Sat 08:03:00 AM 34.2960 108.9935 307° West  Level Estimated
Sat 08:04:00 AM 34.3699 108.8755 307° West  Level Estimated
Sat 08:05:00 AM 34.4436 108.7572 307° West  Level Estimated
Sat 08:06:00 AM 34.4471 108.7516 307° West  Level Estimated
Sat 08:07:00 AM 34.4471 108.7516 121° Southeast  Level Estimated
Sat 08:08:00 AM 34.4471 108.7516 121° Southeast  Level Estimated
Sat 08:09:00 AM 34.4471 108.7516 121° Southeast  Level Estimated
Sat 08:10:00 AM 34.4471 108.7516 121° Southeast  Level Estimated
Sat 08:11:00 AM 34.4471 108.7516 121° Southeast  Level Estimated
Sat 08:12:00 AM 34.4471 108.7516 121° Southeast  Level Estimated
Sat 08:13:00 AM 34.4471 108.7516 121° Southeast  Level Estimated
Sat 08:14:00 AM 34.4471 108.7516 121° Southeast  Level Estimated
Sat 08:15:00 AM 34.4471 108.7516 121° Southeast  Level Estimated
Sat 08:16:00 AM 34.4471 108.7516 121° Southeast  Level Estimated
Sat 08:17:00 AM 34.4471 108.7516 121° Southeast  Level Estimated
Sat 08:18:00 AM 34.4471 108.7516 121° Southeast  Level Estimated
Sat 08:19:00 AM 34.4471 108.7516 121° Southeast  Level Estimated
Sat 08:20:00 AM 34.4471 108.7516 121° Southeast  Level Estimated
Sat 08:21:00 AM 34.4471 108.7516 121° Southeast  Level Estimated
Sat 08:22:00 AM 34.4471 108.7516 121° Southeast  Level Estimated
Sat 08:23:00 AM 34.4471 108.7516 121° Southeast  Level Estimated

Login

Don't have an account? Register now (free) for customized features, flight alerts, and more!